createdAt,value
2024-03-14T00:01:32.540Z,5.53
2024-03-14T00:03:59.597Z,5.20
2024-03-14T00:06:27.146Z,5.90
2024-03-14T00:08:54.576Z,9.43
2024-03-14T00:11:22.687Z,7.93
2024-03-14T00:13:49.580Z,9.73
2024-03-14T00:16:16.537Z,6.30
2024-03-14T00:18:45.447Z,8.43
2024-03-14T00:21:13.534Z,8.47
2024-03-14T00:23:40.473Z,9.13
2024-03-14T00:26:10.282Z,6.73
2024-03-14T00:28:37.773Z,7.77
2024-03-14T00:31:05.314Z,6.80
2024-03-14T00:33:32.375Z,7.63
2024-03-14T00:36:00.116Z,6.90
2024-03-14T00:38:27.059Z,7.20
2024-03-14T00:40:54.499Z,7.40
2024-03-14T00:43:22.580Z,7.30
2024-03-14T00:45:49.514Z,6.93
2024-03-14T00:48:17.223Z,7.57
2024-03-14T00:50:45.302Z,5.23
2024-03-14T00:53:12.391Z,7.27
2024-03-14T00:55:39.313Z,6.60
2024-03-14T00:58:07.851Z,5.57
2024-03-14T01:00:34.809Z,7.23
2024-03-14T01:03:01.828Z,6.57
2024-03-14T01:05:28.654Z,6.13
2024-03-14T01:07:55.563Z,7.57
2024-03-14T01:10:22.364Z,7.93
2024-03-14T01:12:49.548Z,6.77
2024-03-14T01:15:18.983Z,11.43
2024-03-14T01:17:45.983Z,8.43
2024-03-14T01:20:12.929Z,9.03
2024-03-14T01:22:39.813Z,8.87
2024-03-14T01:25:07.178Z,7.87
2024-03-14T01:27:34.851Z,7.17
2024-03-14T01:30:02.373Z,6.80
2024-03-14T01:32:29.641Z,6.77
2024-03-14T01:34:56.556Z,5.27
2024-03-14T01:37:23.414Z,5.80
2024-03-14T01:39:53.031Z,4.73
2024-03-14T01:42:19.960Z,6.00
2024-03-14T01:45:10.410Z,5.80
2024-03-14T01:47:38.529Z,6.60
2024-03-14T01:50:07.568Z,6.17
2024-03-14T01:52:35.374Z,5.73
2024-03-14T01:55:03.707Z,4.63
2024-03-14T01:57:32.157Z,3.80
2024-03-14T02:00:00.193Z,5.07
2024-03-14T02:02:27.767Z,4.60
2024-03-14T02:05:12.120Z,3.20
2024-03-14T02:07:39.705Z,3.93
2024-03-14T02:10:07.758Z,3.77
2024-03-14T02:12:34.837Z,4.43
2024-03-14T02:15:03.918Z,3.60
2024-03-14T02:17:31.253Z,4.10
2024-03-14T02:19:58.138Z,3.60
2024-03-14T02:22:25.238Z,3.63
2024-03-14T02:24:52.573Z,3.03
2024-03-14T02:27:21.195Z,3.43
2024-03-14T02:29:48.229Z,2.37
2024-03-14T02:32:15.492Z,2.50
2024-03-14T02:34:42.360Z,3.33
2024-03-14T02:37:09.382Z,3.17
2024-03-14T02:39:36.210Z,3.70
2024-03-14T02:42:03.341Z,2.60
2024-03-14T02:44:30.212Z,2.47
2024-03-14T02:46:57.711Z,2.67
2024-03-14T02:49:24.885Z,2.33
2024-03-14T02:51:51.744Z,3.23
2024-03-14T02:54:18.687Z,2.90
2024-03-14T02:56:48.646Z,2.40
2024-03-14T02:59:15.754Z,2.73
2024-03-14T03:01:42.732Z,2.30
2024-03-14T03:04:13.012Z,2.00
2024-03-14T03:06:49.811Z,1.87
2024-03-14T03:09:16.747Z,2.30
2024-03-14T03:11:43.638Z,2.27
2024-03-14T03:14:10.485Z,3.13
2024-03-14T03:16:38.512Z,2.10
2024-03-14T03:19:10.788Z,2.17
2024-03-14T03:21:41.333Z,2.00
2024-03-14T03:24:09.066Z,1.63
2024-03-14T03:26:36.496Z,2.10
2024-03-14T03:29:03.548Z,2.10
2024-03-14T03:31:31.036Z,1.73
2024-03-14T03:33:57.961Z,2.67
2024-03-14T03:36:25.105Z,2.27
2024-03-14T03:38:52.456Z,4.37
2024-03-14T03:41:24.459Z,2.97
2024-03-14T03:43:51.353Z,2.40
2024-03-14T03:46:18.190Z,2.43
2024-03-14T03:48:46.020Z,2.30
2024-03-14T03:51:14.542Z,3.23
2024-03-14T03:53:41.409Z,5.73
2024-03-14T03:56:08.732Z,3.73
2024-03-14T03:58:35.534Z,3.80
2024-03-14T04:01:08.389Z,3.10
2024-03-14T04:03:35.424Z,3.97
2024-03-14T04:06:03.022Z,3.33
2024-03-14T04:08:31.747Z,2.60
2024-03-14T04:10:58.668Z,2.83
2024-03-14T04:13:27.852Z,2.67
2024-03-14T04:15:54.653Z,2.63
2024-03-14T04:18:21.550Z,2.97
2024-03-14T04:20:48.411Z,2.40
2024-03-14T04:23:16.690Z,2.70
2024-03-14T04:25:43.482Z,2.30
2024-03-14T04:28:10.249Z,2.60
2024-03-14T04:30:38.349Z,2.50
2024-03-14T04:33:05.750Z,2.63
2024-03-14T04:35:34.934Z,3.23
2024-03-14T04:38:02.049Z,8.30
2024-03-14T04:40:28.825Z,4.97
2024-03-14T04:42:56.607Z,4.90
2024-03-14T04:45:24.013Z,6.33
2024-03-14T04:47:51.357Z,4.83
2024-03-14T04:50:20.948Z,3.57
2024-03-14T04:52:49.403Z,3.77
2024-03-14T04:55:16.181Z,3.60
2024-03-14T04:57:44.846Z,3.40
2024-03-14T05:00:22.495Z,3.30
2024-03-14T05:02:51.253Z,4.17
2024-03-14T05:05:19.000Z,3.57
2024-03-14T05:07:45.893Z,4.53
2024-03-14T05:10:15.588Z,3.20
2024-03-14T05:12:43.977Z,4.33
2024-03-14T05:15:11.248Z,4.07
2024-03-14T05:17:38.134Z,4.13
2024-03-14T05:20:08.240Z,4.00
2024-03-14T05:22:35.059Z,4.73
2024-03-14T05:25:07.607Z,6.23
2024-03-14T05:27:34.730Z,4.73
2024-03-14T05:30:02.476Z,3.90
2024-03-14T05:32:29.914Z,3.53
2024-03-14T05:35:00.625Z,4.47
2024-03-14T05:37:28.239Z,4.13
2024-03-14T05:39:55.166Z,3.60
2024-03-14T05:42:22.067Z,3.73
2024-03-14T05:44:49.657Z,3.80
2024-03-14T05:47:19.429Z,4.07
2024-03-14T05:49:46.234Z,2.93
2024-03-14T05:52:14.178Z,3.03
2024-03-14T05:54:41.101Z,3.03
2024-03-14T05:57:08.109Z,3.67
2024-03-14T05:59:37.980Z,4.03
2024-03-14T06:02:05.468Z,4.93
2024-03-14T06:04:32.421Z,7.43
2024-03-14T06:06:59.744Z,6.37
2024-03-14T06:09:43.257Z,6.03
2024-03-14T06:12:10.920Z,4.43
2024-03-14T06:14:40.396Z,4.80
2024-03-14T06:17:07.515Z,3.80
2024-03-14T06:19:34.708Z,4.13
2024-03-14T06:22:01.553Z,4.17
2024-03-14T06:24:29.501Z,3.87
2024-03-14T06:26:56.473Z,3.80
2024-03-14T06:29:24.452Z,5.60
2024-03-14T06:31:51.786Z,4.53
2024-03-14T06:34:18.973Z,3.70
2024-03-14T06:36:46.154Z,5.10
2024-03-14T06:39:13.190Z,4.43
2024-03-14T06:41:40.091Z,4.20
2024-03-14T06:44:08.382Z,5.83
2024-03-14T06:46:35.830Z,6.50
2024-03-14T06:49:03.625Z,6.90
2024-03-14T06:51:30.985Z,5.43
2024-03-14T06:53:59.665Z,4.43
2024-03-14T06:56:28.316Z,4.57
2024-03-14T06:58:55.424Z,7.43
2024-03-14T07:01:22.781Z,4.70
2024-03-14T07:03:49.773Z,5.10
2024-03-14T07:06:16.950Z,4.70
2024-03-14T07:08:44.307Z,5.20
2024-03-14T07:11:13.971Z,4.53
2024-03-14T07:13:41.843Z,5.40
2024-03-14T07:16:11.632Z,9.83
2024-03-14T07:18:39.660Z,6.50
2024-03-14T07:21:06.727Z,6.53
2024-03-14T07:23:34.782Z,4.50
2024-03-14T07:26:06.500Z,4.63
2024-03-14T07:28:33.444Z,4.03
2024-03-14T07:31:00.721Z,6.93
2024-03-14T07:33:27.823Z,7.83
2024-03-14T07:35:56.067Z,6.63
2024-03-14T07:38:29.007Z,5.77
2024-03-14T07:40:56.738Z,5.27
2024-03-14T07:43:24.125Z,5.33
2024-03-14T07:45:51.354Z,5.23
2024-03-14T07:48:19.643Z,3.07
2024-03-14T07:50:47.211Z,3.23
2024-03-14T07:53:14.266Z,2.67
2024-03-14T07:55:41.377Z,3.87
2024-03-14T07:58:09.603Z,3.20
2024-03-14T08:00:38.287Z,4.80
2024-03-14T08:03:05.799Z,2.33
2024-03-14T08:05:34.626Z,2.90
2024-03-14T08:08:14.582Z,3.17
2024-03-14T08:10:48.482Z,3.47
2024-03-14T08:13:22.223Z,2.30
2024-03-14T08:16:00.592Z,3.17
2024-03-14T08:18:27.704Z,3.27
2024-03-14T08:20:58.745Z,3.73
2024-03-14T08:23:27.228Z,4.60
2024-03-14T08:25:54.251Z,3.30
2024-03-14T08:28:21.361Z,3.37
2024-03-14T08:30:48.268Z,3.03
2024-03-14T08:33:15.445Z,2.33
2024-03-14T08:35:43.905Z,2.00
2024-03-14T08:38:14.997Z,2.80
2024-03-14T08:40:43.569Z,2.37
2024-03-14T08:43:12.907Z,3.07
2024-03-14T08:45:40.521Z,2.13
2024-03-14T08:48:10.904Z,1.80
2024-03-14T08:50:41.962Z,2.30
2024-03-14T08:53:14.107Z,1.57
2024-03-14T08:55:46.499Z,1.63
2024-03-14T08:58:13.834Z,1.30
2024-03-14T09:00:41.010Z,1.80
2024-03-14T09:03:08.119Z,3.13
2024-03-14T09:05:35.455Z,2.47
2024-03-14T09:08:02.310Z,1.20
2024-03-14T09:10:29.265Z,1.47
2024-03-14T09:12:56.766Z,1.50
2024-03-14T09:15:25.324Z,1.47
2024-03-14T09:17:52.989Z,2.00
2024-03-14T09:20:22.715Z,1.30
2024-03-14T09:22:56.787Z,3.03
2024-03-14T09:25:25.245Z,1.47
2024-03-14T09:27:55.195Z,2.00
2024-03-14T09:30:25.563Z,1.40
2024-03-14T09:32:54.517Z,2.80
2024-03-14T09:35:28.566Z,2.30
2024-03-14T09:37:56.709Z,1.13
2024-03-14T09:40:25.081Z,0.90
2024-03-14T09:42:58.615Z,1.67
2024-03-14T09:45:26.600Z,1.00
2024-03-14T09:47:57.697Z,1.67
2024-03-14T09:50:28.286Z,1.70
2024-03-14T09:52:56.524Z,1.13
2024-03-14T09:55:25.030Z,2.10
2024-03-14T09:57:56.979Z,0.73
2024-03-14T10:00:27.000Z,0.90
2024-03-14T10:02:54.638Z,0.70
2024-03-14T10:05:22.953Z,1.60
2024-03-14T10:07:50.815Z,3.73
2024-03-14T10:10:18.058Z,1.27
2024-03-14T10:12:55.809Z,1.30
2024-03-14T10:15:23.768Z,1.40
2024-03-14T10:17:54.361Z,0.70
2024-03-14T10:20:21.850Z,3.77
2024-03-14T10:22:52.160Z,0.97
2024-03-14T10:25:25.282Z,0.90
2024-03-14T10:28:05.220Z,1.23
2024-03-14T10:30:38.434Z,0.90
2024-03-14T10:33:09.453Z,1.20
2024-03-14T10:35:38.864Z,0.73
2024-03-14T10:38:12.551Z,0.97
2024-03-14T10:40:42.858Z,2.53
2024-03-14T10:43:11.904Z,0.73
2024-03-14T10:45:39.509Z,9.10
2024-03-14T10:48:09.104Z,0.70
2024-03-14T10:50:38.109Z,1.20
2024-03-14T10:53:06.781Z,1.80
2024-03-14T10:55:35.449Z,1.60
2024-03-14T10:58:06.518Z,3.33
2024-03-14T11:00:35.825Z,1.73
2024-03-14T11:03:05.153Z,0.90
2024-03-14T11:05:33.164Z,2.22
2024-03-14T11:08:04.639Z,0.70
2024-03-14T11:10:33.305Z,0.80
2024-03-14T11:13:06.731Z,0.65
2024-03-14T11:15:39.426Z,0.88
2024-03-14T11:18:09.293Z,1.08
2024-03-14T11:20:37.373Z,1.43
2024-03-14T11:23:13.342Z,1.37
2024-03-14T11:25:44.325Z,1.75
2024-03-14T11:28:13.798Z,0.93
2024-03-14T11:30:40.682Z,1.50
2024-03-14T11:33:08.882Z,2.37
2024-03-14T11:35:41.082Z,1.85
2024-03-14T11:38:23.257Z,0.75
2024-03-14T11:40:53.682Z,1.23
2024-03-14T11:43:24.677Z,1.40
2024-03-14T11:45:55.805Z,1.65
2024-03-14T11:48:25.414Z,1.10
2024-03-14T11:50:55.574Z,1.52
2024-03-14T11:53:22.827Z,1.73
2024-03-14T11:55:58.298Z,2.33
2024-03-14T11:58:30.008Z,2.05
2024-03-14T12:00:57.541Z,1.25
2024-03-14T12:03:24.810Z,3.42
2024-03-14T12:05:54.012Z,5.35
2024-03-14T12:08:21.753Z,2.75
2024-03-14T12:10:56.482Z,2.47
2024-03-14T12:13:28.035Z,3.22
2024-03-14T12:16:03.514Z,2.08
2024-03-14T12:18:31.032Z,1.57
2024-03-14T12:20:59.829Z,2.35
2024-03-14T12:23:28.354Z,1.42
2024-03-14T12:26:02.615Z,1.40
2024-03-14T12:28:33.235Z,1.52
2024-03-14T12:31:02.497Z,2.00
2024-03-14T12:33:29.931Z,3.10
2024-03-14T12:35:57.538Z,2.03
2024-03-14T12:38:25.064Z,1.57
2024-03-14T12:40:59.098Z,2.25
2024-03-14T12:43:32.380Z,1.42
2024-03-14T12:46:02.271Z,1.70
2024-03-14T12:48:30.173Z,1.15
2024-03-14T12:51:11.041Z,1.45
2024-03-14T12:53:38.042Z,1.63
2024-03-14T12:56:08.045Z,1.27
2024-03-14T12:58:35.648Z,3.50
2024-03-14T13:01:02.648Z,3.22
2024-03-14T13:03:29.768Z,3.80
2024-03-14T13:05:58.897Z,1.92
2024-03-14T13:08:26.689Z,1.98
2024-03-14T13:11:12.977Z,3.42
2024-03-14T13:13:39.972Z,1.95
2024-03-14T13:16:33.166Z,2.67
2024-03-14T13:19:01.394Z,1.30
2024-03-14T13:21:28.283Z,3.20
2024-03-14T13:23:55.453Z,1.75
2024-03-14T13:26:24.823Z,3.17
2024-03-14T13:28:53.170Z,2.58
2024-03-14T13:31:21.902Z,1.88
2024-03-14T13:33:48.856Z,2.03
2024-03-14T13:36:17.547Z,1.63
2024-03-14T13:38:45.022Z,1.48
2024-03-14T13:41:14.052Z,4.25
2024-03-14T13:43:41.186Z,2.03
2024-03-14T13:46:09.467Z,1.98
2024-03-14T13:48:37.618Z,2.47
2024-03-14T13:51:08.704Z,2.25
2024-03-14T13:53:35.938Z,1.65
2024-03-14T13:56:02.844Z,1.60
2024-03-14T13:58:37.011Z,1.52
2024-03-14T14:01:20.374Z,2.22
2024-03-14T14:03:48.016Z,2.50
2024-03-14T14:06:18.192Z,2.67
2024-03-14T14:08:46.042Z,2.15
2024-03-14T14:11:14.200Z,2.78
2024-03-14T14:13:41.833Z,1.98
2024-03-14T14:16:12.387Z,1.92
2024-03-14T14:18:40.378Z,2.08
2024-03-14T14:21:07.436Z,1.92
2024-03-14T14:23:34.400Z,2.03
2024-03-14T14:26:02.379Z,1.80
2024-03-14T14:28:29.235Z,2.17
2024-03-14T14:30:56.289Z,2.20
2024-03-14T14:33:25.939Z,2.40
2024-03-14T14:35:53.775Z,2.40
2024-03-14T14:38:20.758Z,3.05
2024-03-14T14:40:50.678Z,2.85
2024-03-14T14:43:17.999Z,2.75
2024-03-14T14:45:45.007Z,1.65
2024-03-14T14:48:11.988Z,2.08
2024-03-14T14:50:40.293Z,4.45
2024-03-14T14:53:07.557Z,3.17
2024-03-14T14:55:34.485Z,2.25
2024-03-14T14:58:03.401Z,1.85
2024-03-14T15:00:30.411Z,1.85
2024-03-14T15:02:57.465Z,1.50
2024-03-14T15:05:24.431Z,1.33
2024-03-14T15:07:51.780Z,2.47
2024-03-14T15:10:19.539Z,1.58
2024-03-14T15:12:53.979Z,2.17
2024-03-14T15:15:26.468Z,2.40
2024-03-14T15:17:54.538Z,3.88
2024-03-14T15:20:24.867Z,2.25
2024-03-14T15:22:54.081Z,1.67
2024-03-14T15:25:22.545Z,1.92
2024-03-14T15:27:50.077Z,2.03
2024-03-14T15:30:18.162Z,1.48
2024-03-14T15:32:46.673Z,0.80
2024-03-14T15:35:15.964Z,1.55
2024-03-14T15:37:44.036Z,1.80
2024-03-14T15:40:14.549Z,0.90
2024-03-14T15:42:41.765Z,0.97
2024-03-14T15:45:10.524Z,1.97
2024-03-14T15:47:38.137Z,2.83
2024-03-14T15:50:09.051Z,0.97
2024-03-14T15:52:36.093Z,4.33
2024-03-14T15:55:06.516Z,6.97
2024-03-14T15:57:35.264Z,1.07
2024-03-14T16:00:09.858Z,1.60
2024-03-14T16:02:44.449Z,1.80
2024-03-14T16:05:16.448Z,1.10
2024-03-14T16:07:44.359Z,0.97
2024-03-14T16:10:11.540Z,1.43
2024-03-14T16:12:39.309Z,4.53
2024-03-14T16:15:12.998Z,4.17
2024-03-14T16:17:40.487Z,5.13
2024-03-14T16:20:36.045Z,6.70
2024-03-14T16:23:05.023Z,2.87
2024-03-14T16:25:36.153Z,2.00
2024-03-14T16:28:04.539Z,3.27
2024-03-14T16:30:31.999Z,1.60
2024-03-14T16:32:59.243Z,4.33
2024-03-14T16:35:36.662Z,3.13
2024-03-14T16:38:04.069Z,2.50
2024-03-14T16:40:32.815Z,1.60
2024-03-14T16:43:00.274Z,1.20
2024-03-14T16:45:30.965Z,1.37
2024-03-14T16:48:02.128Z,1.60
2024-03-14T16:50:29.550Z,1.20
2024-03-14T16:52:56.787Z,1.50
2024-03-14T16:55:23.826Z,3.37
2024-03-14T16:57:50.759Z,1.50
2024-03-14T17:00:23.458Z,3.83
2024-03-14T17:02:50.726Z,1.30
2024-03-14T17:05:21.039Z,2.40
2024-03-14T17:07:48.518Z,3.37
2024-03-14T17:10:17.652Z,1.90
2024-03-14T17:12:45.449Z,2.03
2024-03-14T17:15:12.697Z,1.43
2024-03-14T17:17:39.600Z,1.60
2024-03-14T17:20:13.588Z,1.57
2024-03-14T17:22:43.509Z,2.13
2024-03-14T17:25:14.021Z,1.70
2024-03-14T17:27:41.787Z,1.57
2024-03-14T17:30:10.020Z,1.73
2024-03-14T17:32:38.146Z,1.50
2024-03-14T17:35:09.218Z,1.20
2024-03-14T17:37:38.734Z,2.63
2024-03-14T17:40:12.277Z,2.83
2024-03-14T17:42:44.146Z,2.47
2024-03-14T17:45:19.090Z,2.27
2024-03-14T17:47:47.842Z,3.03
2024-03-14T17:50:15.986Z,2.70
2024-03-14T17:52:46.356Z,3.13
2024-03-14T17:55:14.773Z,3.03
2024-03-14T17:57:48.053Z,2.60
2024-03-14T18:00:16.769Z,2.73
2024-03-14T18:02:44.375Z,3.20
2024-03-14T18:05:14.012Z,2.33
2024-03-14T18:07:48.123Z,2.30
2024-03-14T18:10:15.556Z,2.77
2024-03-14T18:12:44.327Z,4.23
2024-03-14T18:15:14.502Z,3.90
2024-03-14T18:17:42.761Z,6.70
2024-03-14T18:20:10.597Z,7.10
2024-03-14T18:22:47.155Z,6.63
2024-03-14T18:25:18.792Z,5.93
2024-03-14T18:27:49.446Z,4.53
2024-03-14T18:30:20.218Z,6.00
2024-03-14T18:32:48.795Z,4.33
2024-03-14T18:35:20.886Z,5.40
2024-03-14T18:37:50.884Z,5.93
2024-03-14T18:40:20.251Z,8.23
2024-03-14T18:42:49.030Z,4.20
2024-03-14T18:45:18.551Z,3.07
2024-03-14T18:47:46.321Z,3.63
2024-03-14T18:50:13.500Z,2.73
2024-03-14T18:52:41.253Z,5.90
2024-03-14T18:55:10.434Z,4.27
2024-03-14T18:57:37.829Z,4.17
2024-03-14T19:00:08.046Z,5.10
2024-03-14T19:02:35.335Z,8.77
2024-03-14T19:05:02.651Z,8.43
2024-03-14T19:07:29.614Z,6.57
2024-03-14T19:09:56.409Z,6.77
2024-03-14T19:12:23.882Z,5.67
2024-03-14T19:14:51.915Z,5.30
2024-03-14T19:17:22.568Z,5.10
2024-03-14T19:19:52.212Z,5.77
2024-03-14T19:22:19.766Z,5.07
2024-03-14T19:24:46.969Z,4.90
2024-03-14T19:27:14.012Z,3.53
2024-03-14T19:29:41.119Z,4.10
2024-03-14T19:32:08.165Z,3.87
2024-03-14T19:34:35.581Z,3.67
2024-03-14T19:37:04.879Z,2.80
2024-03-14T19:39:33.891Z,2.57
2024-03-14T19:42:01.950Z,2.33
2024-03-14T19:44:30.308Z,3.63
2024-03-14T19:46:58.371Z,3.00
2024-03-14T19:49:25.823Z,2.73
2024-03-14T19:51:54.907Z,3.73
2024-03-14T19:54:23.278Z,5.23
2024-03-14T19:56:50.148Z,5.73
2024-03-14T19:59:17.194Z,4.97
2024-03-14T20:01:44.623Z,5.63
2024-03-14T20:04:11.494Z,4.03
2024-03-14T20:06:38.658Z,2.77
2024-03-14T20:09:07.514Z,3.27
2024-03-14T20:11:35.441Z,2.87
2024-03-14T20:14:02.835Z,3.67
2024-03-14T20:16:31.018Z,2.80
2024-03-14T20:18:58.676Z,2.73
2024-03-14T20:21:32.167Z,3.43
2024-03-14T20:23:58.985Z,2.40
2024-03-14T20:26:25.871Z,2.57
2024-03-14T20:28:52.785Z,1.80
2024-03-14T20:31:19.937Z,2.13
2024-03-14T20:33:47.334Z,1.57
2024-03-14T20:36:16.175Z,2.27
2024-03-14T20:38:43.554Z,2.00
2024-03-14T20:41:22.734Z,2.20
2024-03-14T20:43:54.237Z,2.30
2024-03-14T20:46:21.485Z,1.67
2024-03-14T20:48:51.169Z,1.77
2024-03-14T20:51:19.302Z,1.70
2024-03-14T20:53:46.905Z,2.17
2024-03-14T20:56:38.556Z,3.57
2024-03-14T20:59:07.758Z,1.87
2024-03-14T21:01:34.609Z,1.93
2024-03-14T21:04:01.501Z,1.53
2024-03-14T21:06:28.304Z,2.07
2024-03-14T21:09:01.624Z,1.77
2024-03-14T21:11:29.294Z,1.70
2024-03-14T21:13:57.818Z,1.33
2024-03-14T21:16:26.493Z,1.30
2024-03-14T21:18:53.562Z,1.83
2024-03-14T21:21:21.860Z,2.17
2024-03-14T21:23:49.140Z,1.30
2024-03-14T21:26:16.419Z,1.97
2024-03-14T21:28:43.709Z,1.57
2024-03-14T21:31:10.503Z,1.77
2024-03-14T21:33:38.294Z,1.70
2024-03-14T21:36:06.298Z,2.90
2024-03-14T21:38:36.149Z,2.13
2024-03-14T21:41:03.837Z,2.67
2024-03-14T21:43:30.831Z,1.60
2024-03-14T21:45:57.907Z,2.37
2024-03-14T21:48:25.085Z,2.80
2024-03-14T21:50:52.259Z,2.03
2024-03-14T21:53:19.821Z,1.80
2024-03-14T21:55:46.706Z,1.80
2024-03-14T21:58:13.870Z,2.53
2024-03-14T22:00:40.908Z,3.00
2024-03-14T22:03:08.645Z,3.63
2024-03-14T22:05:35.793Z,3.30
2024-03-14T22:08:05.533Z,2.50
2024-03-14T22:10:32.540Z,2.93
2024-03-14T22:12:59.617Z,4.03
2024-03-14T22:15:26.881Z,3.50
2024-03-14T22:17:53.979Z,3.60
2024-03-14T22:20:21.947Z,3.90
2024-03-14T22:22:49.268Z,3.67
2024-03-14T22:25:17.041Z,3.53
2024-03-14T22:27:44.392Z,2.63
2024-03-14T22:30:11.988Z,2.50
2024-03-14T22:32:39.086Z,2.03
2024-03-14T22:35:06.307Z,2.43
2024-03-14T22:37:33.219Z,1.90
2024-03-14T22:40:00.341Z,2.23
2024-03-14T22:42:27.537Z,1.63
2024-03-14T22:44:54.879Z,1.37
2024-03-14T22:47:21.722Z,1.50
2024-03-14T22:49:48.571Z,1.63
2024-03-14T22:52:15.656Z,3.17
2024-03-14T22:54:43.024Z,3.03
2024-03-14T22:57:10.138Z,2.10
2024-03-14T22:59:38.032Z,2.30
2024-03-14T23:02:05.419Z,1.83
2024-03-14T23:04:34.150Z,3.07
2024-03-14T23:07:02.118Z,3.97
2024-03-14T23:09:31.206Z,4.07
2024-03-14T23:11:58.674Z,4.20
2024-03-14T23:14:25.688Z,2.90
2024-03-14T23:16:53.235Z,3.43
2024-03-14T23:19:20.119Z,4.20
2024-03-14T23:21:49.419Z,2.43
2024-03-14T23:24:18.825Z,2.27
2024-03-14T23:26:46.173Z,2.63
2024-03-14T23:29:13.264Z,2.60
2024-03-14T23:31:41.509Z,2.97
2024-03-14T23:34:08.765Z,4.37
2024-03-14T23:36:37.631Z,2.83
2024-03-14T23:39:06.361Z,3.90
2024-03-14T23:41:34.437Z,3.93
2024-03-14T23:44:01.594Z,3.77
2024-03-14T23:46:28.480Z,2.80
2024-03-14T23:48:55.454Z,2.47
2024-03-14T23:51:24.236Z,2.80
2024-03-14T23:53:51.916Z,2.53
2024-03-14T23:56:19.420Z,2.53
2024-03-14T23:58:46.518Z,1.80
